Time,TemperatureF,DewpointF,PressureIn,WindDirection,WindDirectionDegrees,WindSpeedMPH,WindSpeedGustMPH,Humidity,HourlyPrecipIn,Conditions,Clouds,dailyrainin,SolarRadiationWatts/m^2,SoftwareType,DateUTC
2013-12-18 01:53:00,27.0,23.0,-100.00,NNW,335,1.0,4.0,84,-99.99,,,0.06,0.000000,,2013-12-18 06:53:00,
2013-12-18 02:02:00,27.0,23.0,-100.00,NNW,335,1.0,4.0,84,-99.99,,,0.06,0.000000,,2013-12-18 07:02:00,
2013-12-18 02:12:00,27.0,23.0,-100.00,NNW,335,1.0,4.0,84,-99.99,,,0.06,0.000000,,2013-12-18 07:12:00,
2013-12-18 02:22:00,27.0,23.0,-100.00,NNW,335,1.0,4.0,84,-99.99,,,0.06,0.000000,,2013-12-18 07:22:00,
2013-12-18 02:53:00,27.0,23.0,-100.00,NNE,32,1.0,4.0,84,0.00,,,0.06,0.000000,,2013-12-18 07:53:00,
2013-12-18 03:02:00,27.0,23.0,-100.00,NNE,32,1.0,4.0,84,0.00,,,0.06,0.000000,,2013-12-18 08:02:00,
2013-12-18 03:12:00,27.0,23.0,-100.00,NNE,32,1.0,4.0,84,0.00,,,0.06,0.000000,,2013-12-18 08:12:00,
2013-12-18 03:22:00,27.0,23.0,-100.00,NNE,32,1.0,4.0,84,0.00,,,0.06,0.000000,,2013-12-18 08:22:00,
2013-12-18 03:52:00,28.0,24.0,-100.00,North,357,2.0,5.0,85,0.00,,,0.06,0.000000,,2013-12-18 08:52:00,
2013-12-18 04:03:00,28.0,24.0,-100.00,North,357,2.0,5.0,85,0.00,,,0.06,0.000000,,2013-12-18 09:03:00,
2013-12-18 04:11:00,28.0,24.0,-100.00,North,357,2.0,5.0,85,0.00,,,0.06,0.000000,,2013-12-18 09:11:00,
2013-12-18 04:22:00,28.0,24.0,-100.00,North,357,2.0,5.0,85,0.00,,,0.06,0.000000,,2013-12-18 09:22:00,
2013-12-18 04:23:00,28.0,23.0,-100.00,NNW,331,3.0,7.0,81,0.00,,,0.06,0.000000,,2013-12-18 09:23:00,
2013-12-18 04:54:00,28.0,23.0,-100.00,NNW,331,3.0,7.0,81,0.00,,,0.06,0.000000,,2013-12-18 09:54:00,
2013-12-18 05:03:00,28.0,23.0,-100.00,NNW,331,3.0,7.0,81,0.00,,,0.06,0.000000,,2013-12-18 10:03:00,
2013-12-18 05:13:00,28.0,23.0,-100.00,NNW,331,3.0,7.0,81,0.00,,,0.06,0.000000,,2013-12-18 10:13:00,
2013-12-18 05:23:00,28.0,23.0,-100.00,NNW,327,3.0,7.0,82,0.00,,,0.06,0.000000,,2013-12-18 10:23:00,
2013-12-18 05:52:00,28.0,23.0,-100.00,NNW,327,3.0,7.0,82,0.00,,,0.06,0.000000,,2013-12-18 10:52:00,
2013-12-18 06:03:00,28.0,23.0,-100.00,NNW,327,3.0,7.0,82,0.00,,,0.06,0.000000,,2013-12-18 11:03:00,
2013-12-18 06:12:00,28.0,23.0,-100.00,NNW,327,3.0,7.0,82,0.00,,,0.06,0.000000,,2013-12-18 11:12:00,
2013-12-18 06:53:00,27.0,23.0,-100.00,NNW,337,3.0,7.0,84,0.00,,,0.06,0.000000,,2013-12-18 11:53:00,
2013-12-18 07:02:00,27.0,23.0,-100.00,NNW,337,3.0,7.0,84,0.00,,,0.06,0.000000,,2013-12-18 12:02:00,
2013-12-18 07:11:00,27.0,23.0,-100.00,NNW,337,3.0,7.0,84,0.00,,,0.06,0.000000,,2013-12-18 12:11:00,
2013-12-18 07:22:00,27.0,23.0,-100.00,NNW,337,3.0,7.0,84,0.00,,,0.06,0.000000,,2013-12-18 12:22:00,
2013-12-18 07:53:00,27.0,23.0,-100.00,NNW,330,3.0,7.0,84,0.00,,,-99.99,0.000000,,2013-12-18 12:53:00,
2013-12-18 08:01:00,27.0,23.0,-100.00,NNW,330,3.0,7.0,84,0.00,,,-99.99,0.000000,,2013-12-18 13:01:00,
2013-12-18 08:12:00,27.0,23.0,-100.00,NNW,330,3.0,7.0,84,0.00,,,-99.99,0.000000,,2013-12-18 13:12:00,
2013-12-18 08:22:00,27.0,23.0,-100.00,NNW,330,3.0,7.0,84,0.00,,,-99.99,0.000000,,2013-12-18 13:22:00,
2013-12-18 08:52:00,27.0,22.0,-100.00,NNW,335,3.0,7.0,82,0.00,,,0.06,4.000000,,2013-12-18 13:52:00,
2013-12-18 09:02:00,27.0,22.0,-100.00,NNW,335,3.0,7.0,82,0.00,,,0.06,4.000000,,2013-12-18 14:02:00,
2013-12-18 09:11:00,27.0,22.0,-100.00,NNW,335,3.0,7.0,82,0.00,,,0.06,4.000000,,2013-12-18 14:11:00,
2013-12-18 09:22:00,27.0,22.0,-100.00,NNW,335,3.0,7.0,82,0.00,,,0.06,4.000000,,2013-12-18 14:22:00,
2013-12-18 09:52:00,28.0,23.0,-100.00,NNW,329,4.0,8.0,80,0.00,,,0.06,32.000000,,2013-12-18 14:52:00,
2013-12-18 10:02:00,28.0,23.0,-100.00,NNW,329,4.0,8.0,80,0.00,,,0.06,32.000000,,2013-12-18 15:02:00,
2013-12-18 10:12:00,28.0,23.0,-100.00,NNW,329,4.0,8.0,80,0.00,,,0.06,32.000000,,2013-12-18 15:12:00,
2013-12-18 10:22:00,28.0,23.0,-100.00,NNW,329,4.0,8.0,80,0.00,,,0.06,32.000000,,2013-12-18 15:22:00,
2013-12-18 10:23:00,28.0,21.0,-100.00,NNW,337,4.0,9.0,75,0.00,,,0.06,64.000000,,2013-12-18 15:23:00,
2013-12-18 10:54:00,28.0,21.0,-100.00,NNW,337,4.0,9.0,75,0.00,,,0.06,64.000000,,2013-12-18 15:54:00,
2013-12-18 11:04:00,28.0,21.0,-100.00,NNW,337,4.0,9.0,75,0.00,,,0.06,64.000000,,2013-12-18 16:04:00,
2013-12-18 11:13:00,28.0,21.0,-100.00,NNW,337,4.0,9.0,75,0.00,,,0.06,64.000000,,2013-12-18 16:13:00,
2013-12-18 11:23:00,29.0,20.0,-100.00,NNW,348,3.0,8.0,68,0.00,,,0.05,106.000000,,2013-12-18 16:23:00,
2013-12-18 11:53:00,29.0,20.0,-100.00,NNW,348,3.0,8.0,68,0.00,,,0.05,106.000000,,2013-12-18 16:53:00,
2013-12-18 12:02:00,29.0,20.0,-100.00,NNW,348,3.0,8.0,68,0.00,,,0.05,106.000000,,2013-12-18 17:02:00,
2013-12-18 12:13:00,29.0,20.0,-100.00,NNW,348,3.0,8.0,68,0.00,,,0.05,106.000000,,2013-12-18 17:13:00,
2013-12-18 12:52:00,29.0,19.0,-100.00,NNW,332,4.0,7.0,65,0.00,,,0.03,133.000000,,2013-12-18 17:52:00,
2013-12-18 13:02:00,29.0,19.0,-100.00,NNW,332,4.0,7.0,65,0.00,,,0.03,133.000000,,2013-12-18 18:02:00,
2013-12-18 13:12:00,29.0,19.0,-100.00,NNW,332,4.0,7.0,65,0.00,,,0.03,133.000000,,2013-12-18 18:12:00,
2013-12-18 13:22:00,29.0,19.0,-100.00,NNW,332,4.0,7.0,65,0.00,,,0.03,133.000000,,2013-12-18 18:22:00,
2013-12-18 13:52:00,30.0,20.0,-100.00,NNW,333,4.0,10.0,65,0.01,,,0.04,159.000000,,2013-12-18 18:52:00,
2013-12-18 14:02:00,30.0,20.0,-100.00,NNW,333,4.0,10.0,65,0.01,,,0.04,159.000000,,2013-12-18 19:02:00,
2013-12-18 14:11:00,30.0,20.0,-100.00,NNW,333,4.0,10.0,65,0.01,,,0.04,159.000000,,2013-12-18 19:11:00,
2013-12-18 14:22:00,30.0,20.0,-100.00,NNW,333,4.0,10.0,65,0.01,,,0.04,159.000000,,2013-12-18 19:22:00,
2013-12-18 14:52:00,29.0,19.0,-100.00,NNW,333,4.0,7.0,66,0.00,,,0.02,89.000000,,2013-12-18 19:52:00,
2013-12-18 15:02:00,29.0,19.0,-100.00,NNW,333,4.0,7.0,66,0.00,,,0.02,89.000000,,2013-12-18 20:02:00,
2013-12-18 15:12:00,29.0,19.0,-100.00,NNW,333,4.0,7.0,66,0.00,,,0.02,89.000000,,2013-12-18 20:12:00,
2013-12-18 15:22:00,29.0,19.0,-100.00,NNW,333,4.0,7.0,66,0.00,,,0.02,89.000000,,2013-12-18 20:22:00,
2013-12-18 15:53:00,28.0,17.0,-100.00,NNW,335,4.0,8.0,63,0.00,,,0.01,64.000000,,2013-12-18 20:53:00,
2013-12-18 16:03:00,28.0,17.0,-100.00,NNW,335,4.0,8.0,63,0.00,,,0.01,64.000000,,2013-12-18 21:03:00,
2013-12-18 16:11:00,28.0,17.0,-100.00,NNW,335,4.0,8.0,63,0.00,,,0.01,64.000000,,2013-12-18 21:11:00,
2013-12-18 16:22:00,28.0,17.0,-100.00,NNW,335,4.0,8.0,63,0.00,,,0.01,64.000000,,2013-12-18 21:22:00,
2013-12-18 16:23:00,29.0,19.0,-100.00,NNW,341,2.0,6.0,66,0.00,,,0.01,33.000000,,2013-12-18 21:23:00,
2013-12-18 16:53:00,29.0,19.0,-100.00,NNW,341,2.0,6.0,66,0.00,,,0.01,33.000000,,2013-12-18 21:53:00,
2013-12-18 17:03:00,29.0,19.0,-100.00,NNW,341,2.0,6.0,66,0.00,,,0.01,33.000000,,2013-12-18 22:03:00,
2013-12-18 17:13:00,29.0,19.0,-100.00,NNW,341,2.0,6.0,66,0.00,,,0.01,33.000000,,2013-12-18 22:13:00,
2013-12-18 17:53:00,26.0,17.0,-100.00,East,101,1.0,5.0,67,0.00,,,0.01,7.000000,,2013-12-18 22:53:00,
2013-12-18 18:02:00,26.0,17.0,-100.00,East,101,1.0,5.0,67,0.00,,,0.01,7.000000,,2013-12-18 23:02:00,
2013-12-18 18:12:00,26.0,17.0,-100.00,East,101,1.0,5.0,67,0.00,,,0.01,7.000000,,2013-12-18 23:12:00,
2013-12-18 18:22:00,26.0,17.0,-100.00,East,101,1.0,5.0,67,0.00,,,0.01,7.000000,,2013-12-18 23:22:00,
2013-12-18 18:53:00,24.0,16.0,-100.00,North,-999,0.0,0.0,71,0.00,,,0.01,0.000000,,2013-12-18 23:53:00,
2013-12-18 19:02:00,24.0,16.0,-100.00,North,-999,0.0,0.0,71,0.00,,,0.01,0.000000,,2013-12-19 00:02:00,
2013-12-18 19:11:00,24.0,16.0,-100.00,North,-999,0.0,0.0,71,0.00,,,0.01,0.000000,,2013-12-19 00:11:00,
2013-12-18 19:22:00,24.0,16.0,-100.00,North,-999,0.0,0.0,71,0.00,,,0.01,0.000000,,2013-12-19 00:22:00,
2013-12-18 19:52:00,22.0,16.0,-100.00,North,-999,0.0,0.0,79,0.00,,,0.01,0.000000,,2013-12-19 00:52:00,
2013-12-18 20:02:00,22.0,16.0,-100.00,North,-999,0.0,0.0,79,0.00,,,0.01,0.000000,,2013-12-19 01:02:00,
2013-12-18 20:12:00,22.0,16.0,-100.00,North,-999,0.0,0.0,79,0.00,,,0.01,0.000000,,2013-12-19 01:12:00,
2013-12-18 20:21:00,22.0,16.0,-100.00,North,-999,0.0,0.0,79,0.00,,,0.01,0.000000,,2013-12-19 01:21:00,
2013-12-18 20:52:00,23.0,17.0,-100.00,ESE,108,1.0,3.0,77,0.00,,,0.01,0.000000,,2013-12-19 01:52:00,
2013-12-18 21:01:00,23.0,17.0,-100.00,ESE,108,1.0,3.0,77,0.00,,,0.01,0.000000,,2013-12-19 02:01:00,
2013-12-18 21:11:00,23.0,17.0,-100.00,ESE,108,1.0,3.0,77,0.00,,,0.01,0.000000,,2013-12-19 02:11:00,
2013-12-18 21:22:00,23.0,17.0,-100.00,ESE,108,1.0,3.0,77,0.00,,,0.01,0.000000,,2013-12-19 02:22:00,
2013-12-18 22:12:00,24.0,18.0,-100.00,ESE,107,2.0,3.0,77,0.00,,,0.01,0.000000,,2013-12-19 03:12:00,
2013-12-18 22:21:00,24.0,18.0,-100.00,ESE,107,2.0,3.0,77,0.00,,,0.01,0.000000,,2013-12-19 03:21:00,
2013-12-18 22:23:00,26.0,19.0,-100.00,ESE,112,2.0,3.0,74,0.00,,,0.01,0.000000,,2013-12-19 03:23:00,
2013-12-18 22:54:00,26.0,19.0,-100.00,ESE,112,2.0,3.0,74,0.00,,,0.01,0.000000,,2013-12-19 03:54:00,
2013-12-18 23:03:00,26.0,19.0,-100.00,ESE,112,2.0,3.0,74,0.00,,,0.01,0.000000,,2013-12-19 04:03:00,
2013-12-18 23:13:00,26.0,19.0,-100.00,ESE,112,2.0,3.0,74,0.00,,,0.01,0.000000,,2013-12-19 04:13:00,
2013-12-18 23:53:00,27.0,19.0,-100.00,ESE,111,2.0,3.0,70,0.00,,,0.01,0.000000,,2013-12-19 04:53:00,